Time;durP1;ratioP1;P1;durP2;ratioP2;P2;SDS_P1;SDS_P2;PMS_P1;PMS_P2;Temp;Humidity;BMP_temperature;BMP_pressure;BME280_temperature;BME280_humidity;BME280_pressure;Samples;Min_cycle;Max_cycle;Signal;HPM_P1;HPM_P2
2023/09/26 00:00:25;;;;;;;7.50;5.70;;;;;;;16.15;93.62;101833.48;105905;1265;99167;-86
2023/09/26 00:03:31;;;;;;;5.40;4.90;;;;;;;16.19;93.91;101832.81;105762;1262;100171;-87
2023/09/26 00:06:21;;;;;;;6.80;5.10;;;;;;;16.22;93.77;101832.54;105914;1270;97968;-87
2023/09/26 00:09:09;;;;;;;6.40;5.10;;;;;;;16.26;93.62;101830.00;105716;1262;97952;-88
2023/09/26 00:11:54;;;;;;;7.00;5.30;;;;;;;16.27;93.70;101830.14;106006;1262;101446;-88
2023/09/26 00:14:40;;;;;;;9.30;5.20;;;;;;;16.29;93.53;101831.73;105748;1266;99620;-87
2023/09/26 00:17:27;;;;;;;7.80;5.10;;;;;;;16.30;93.66;101827.80;105942;1262;99133;-88
2023/09/26 00:20:28;;;;;;;7.20;5.80;;;;;;;16.30;93.65;101823.17;105798;1261;98036;-89
2023/09/26 00:23:14;;;;;;;6.10;4.60;;;;;;;16.29;93.57;101823.23;105946;1262;97987;-86
2023/09/26 00:26:00;;;;;;;7.70;5.10;;;;;;;16.31;93.61;101824.68;106030;1264;101418;-88
2023/09/26 00:28:46;;;;;;;7.80;5.00;;;;;;;16.32;93.55;101822.02;105832;1265;99183;-87
2023/09/26 00:31:31;;;;;;;6.40;5.50;;;;;;;16.32;93.57;101818.21;105841;1261;99260;-86
2023/09/26 00:34:17;;;;;;;10.00;5.70;;;;;;;16.31;93.57;101817.65;105913;1264;98053;-86
2023/09/26 00:37:03;;;;;;;7.80;5.30;;;;;;;16.29;93.65;101814.27;106039;1266;98030;-88
2023/09/26 00:39:49;;;;;;;6.30;4.80;;;;;;;16.28;93.74;101816.24;105832;1261;102440;-87
2023/09/26 00:42:35;;;;;;;5.90;5.00;;;;;;;16.26;93.48;101814.06;105838;1260;100473;-87
2023/09/26 00:45:21;;;;;;;10.50;5.40;;;;;;;16.23;93.47;101813.38;105871;1267;98816;-87
2023/09/26 00:48:07;;;;;;;9.00;5.40;;;;;;;16.21;93.62;101813.08;105792;1267;98061;-85
2023/09/26 00:50:54;;;;;;;7.20;5.60;;;;;;;16.17;93.71;101811.59;105838;1260;98096;-85
2023/09/26 00:53:40;;;;;;;9.20;4.90;;;;;;;16.15;93.69;101809.40;105780;1262;102679;-87
2023/09/26 00:56:27;;;;;;;8.80;5.70;;;;;;;16.11;93.76;101811.98;105755;1265;99146;-86
2023/09/26 00:59:13;;;;;;;7.20;5.40;;;;;;;16.11;93.77;101809.20;105811;1266;98779;-87
2023/09/26 01:02:00;;;;;;;9.80;6.20;;;;;;;16.10;93.87;101809.60;106226;1266;98066;-86
2023/09/26 01:04:46;;;;;;;9.30;6.00;;;;;;;16.09;93.89;101805.55;105891;1260;97948;-87
2023/09/26 01:07:35;;;;;;;10.00;6.30;;;;;;;16.08;93.82;101807.24;105967;1265;102095;-86
2023/09/26 01:10:20;;;;;;;12.20;5.80;;;;;;;16.04;93.75;101803.91;106018;1264;99167;-86
2023/09/26 01:13:06;;;;;;;9.00;5.30;;;;;;;15.97;93.98;101807.67;105823;1265;99184;-86
2023/09/26 01:15:52;;;;;;;7.50;4.90;;;;;;;15.93;94.12;101809.51;105905;1267;99340;-87
2023/09/26 01:18:38;;;;;;;9.90;5.80;;;;;;;15.91;94.15;101811.86;105809;1265;97887;-87
2023/09/26 01:21:24;;;;;;;9.50;6.00;;;;;;;15.90;94.19;101813.39;105819;1267;102740;-87
2023/09/26 01:24:10;;;;;;;7.70;5.40;;;;;;;15.91;94.62;101813.85;105697;1263;100542;-86
2023/09/26 01:26:56;;;;;;;9.00;5.30;;;;;;;15.91;94.64;101816.02;105668;1261;99112;-86
2023/09/26 01:29:42;;;;;;;10.10;5.00;;;;;;;15.92;94.71;101814.49;105781;1260;98438;-86
2023/09/26 01:32:29;;;;;;;7.80;5.40;;;;;;;15.93;94.75;101814.05;105685;1261;99574;-87
2023/09/26 01:35:14;;;;;;;13.50;5.30;;;;;;;15.95;94.82;101814.69;105710;1261;101447;-88
2023/09/26 01:38:00;;;;;;;7.60;5.10;;;;;;;15.95;95.05;101814.77;105997;1265;99867;-88
2023/09/26 01:40:46;;;;;;;6.30;5.70;;;;;;;15.97;95.38;101812.25;105981;1264;99126;-87
2023/09/26 01:43:34;;;;;;;7.70;5.20;;;;;;;15.99;95.47;101813.56;105975;1261;98069;-87
2023/09/26 01:46:20;;;;;;;8.10;5.80;;;;;;;16.02;95.61;101816.24;105827;1261;99564;-88
2023/09/26 01:49:06;;;;;;;9.00;6.10;;;;;;;16.03;95.56;101813.72;105815;1264;101422;-88
2023/09/26 01:51:52;;;;;;;10.50;6.50;;;;;;;16.05;95.54;101811.84;106008;1260;100464;-87
2023/09/26 01:54:38;;;;;;;9.30;6.30;;;;;;;16.08;95.65;101813.56;105748;1267;99099;-88
2023/09/26 01:57:23;;;;;;;9.40;5.90;;;;;;;16.09;95.74;101812.13;105900;1260;98063;-87
2023/09/26 02:00:13;;;;;;;8.20;6.50;;;;;;;16.10;95.65;101808.06;105945;1267;98414;-88
2023/09/26 02:02:58;;;;;;;10.90;6.20;;;;;;;16.10;95.79;101803.66;106002;1267;103153;-88
2023/09/26 02:05:44;;;;;;;9.70;6.10;;;;;;;16.12;96.02;101803.95;105662;1265;99283;-85
2023/09/26 02:08:30;;;;;;;10.10;6.20;;;;;;;16.13;96.05;101801.48;105752;1261;98742;-85
2023/09/26 02:11:16;;;;;;;8.70;5.90;;;;;;;16.16;96.06;101805.67;105935;1267;99331;-88
2023/09/26 02:14:02;;;;;;;7.10;5.30;;;;;;;16.18;96.10;101806.80;105769;1264;97988;-86
2023/09/26 02:16:48;;;;;;;8.60;5.60;;;;;;;16.20;96.17;101809.78;105933;1265;101459;-86
2023/09/26 02:19:34;;;;;;;7.60;5.30;;;;;;;16.22;96.04;101805.23;105864;1265;100349;-86
2023/09/26 02:22:20;;;;;;;10.10;5.20;;;;;;;16.23;96.23;101805.98;106017;1267;98220;-87
2023/09/26 02:25:06;;;;;;;5.50;5.00;;;;;;;16.24;96.29;101805.66;105947;1260;98401;-86
2023/09/26 02:27:53;;;;;;;8.70;5.70;;;;;;;16.26;96.33;101802.42;105832;1261;98429;-87
2023/09/26 02:30:41;;;;;;;10.00;5.90;;;;;;;16.27;96.37;101802.31;106029;1260;102165;-89
2023/09/26 02:33:26;;;;;;;6.10;4.50;;;;;;;16.26;96.52;101803.13;105735;1274;100456;-88
2023/09/26 02:36:12;;;;;;;6.60;5.50;;;;;;;16.27;96.63;101801.23;105836;1265;98003;-87
2023/09/26 02:38:58;;;;;;;7.90;5.60;;;;;;;16.28;96.81;101801.37;105997;1260;97993;-89
2023/09/26 02:41:44;;;;;;;10.10;5.10;;;;;;;16.30;96.87;101801.92;105860;1260;98026;-88
2023/09/26 02:44:30;;;;;;;6.60;5.00;;;;;;;16.31;96.81;101805.21;105997;1267;102157;-88
2023/09/26 02:47:16;;;;;;;6.90;4.70;;;;;;;16.32;96.95;101807.73;105835;1265;99925;-88
2023/09/26 02:50:02;;;;;;;6.00;4.90;;;;;;;16.33;96.90;101808.11;105951;1265;98681;-89
2023/09/26 02:52:49;;;;;;;9.20;5.50;;;;;;;16.33;97.07;101810.86;105950;1260;99221;-85
2023/09/26 02:55:40;;;;;;;13.10;5.30;;;;;;;16.31;97.21;101806.08;105841;1267;98402;-86
2023/09/26 02:58:26;;;;;;;8.80;5.20;;;;;;;16.31;97.30;101802.80;105812;1267;101484;-85
2023/09/26 03:01:20;;;;;;;11.90;5.40;;;;;;;16.31;97.42;101801.05;105888;1265;99198;-85
2023/09/26 03:04:06;;;;;;;11.20;6.10;;;;;;;16.30;97.62;101796.27;105942;1261;99105;-86
2023/09/26 03:06:52;;;;;;;7.50;5.90;;;;;;;16.31;97.69;101796.55;105755;1260;98246;-87
2023/09/26 03:09:38;;;;;;;8.20;6.40;;;;;;;16.32;97.75;101793.35;105966;1261;97969;-88
2023/09/26 03:12:25;;;;;;;18.50;7.50;;;;;;;16.31;97.87;101789.81;105964;1260;103072;-86
2023/09/26 03:15:12;;;;;;;9.90;6.10;;;;;;;16.31;97.57;101783.70;105793;1261;99170;-87
2023/09/26 03:17:58;;;;;;;10.80;6.50;;;;;;;16.32;97.81;101779.47;105849;1264;99308;-87
2023/09/26 03:20:43;;;;;;;8.90;6.00;;;;;;;16.32;97.86;101772.85;105834;1267;98826;-87
2023/09/26 03:23:29;;;;;;;8.80;5.90;;;;;;;16.33;97.71;101770.30;106008;1260;98863;-87
2023/09/26 03:26:15;;;;;;;12.10;6.20;;;;;;;16.35;97.80;101770.30;105782;1261;102186;-86
2023/09/26 03:29:01;;;;;;;9.50;6.40;;;;;;;16.35;97.67;101771.48;105748;1260;99394;-87
2023/09/26 03:31:48;;;;;;;10.90;5.80;;;;;;;16.35;97.70;101772.35;105662;1260;98966;-86
2023/09/26 03:34:33;;;;;;;9.50;6.30;;;;;;;16.34;97.45;101770.34;105784;1260;98096;-86
2023/09/26 03:37:19;;;;;;;6.20;4.90;;;;;;;16.34;97.33;101774.17;105854;1267;97961;-87
2023/09/26 03:40:05;;;;;;;6.60;5.30;;;;;;;16.35;97.47;101776.38;105778;1266;101463;-88
2023/09/26 03:42:52;;;;;;;7.00;5.30;;;;;;;16.35;97.61;101776.34;105664;1260;99667;-85
2023/09/26 03:45:38;;;;;;;6.80;6.10;;;;;;;16.33;97.43;101773.96;105959;1261;97921;-87
2023/09/26 03:48:24;;;;;;;8.30;5.40;;;;;;;16.32;97.21;101775.11;105714;1266;98036;-86
2023/09/26 03:51:17;;;;;;;7.10;6.00;;;;;;;16.33;97.37;101773.71;105850;1261;98184;-85
2023/09/26 03:54:03;;;;;;;9.30;6.30;;;;;;;16.33;97.51;101767.23;105695;1267;102103;-86
2023/09/26 03:56:49;;;;;;;8.70;5.60;;;;;;;16.35;97.77;101765.89;105788;1260;100482;-85
2023/09/26 03:59:35;;;;;;;11.00;5.70;;;;;;;16.36;97.43;101767.40;105835;1260;98019;-85
2023/09/26 04:02:21;;;;;;;6.70;5.90;;;;;;;16.37;97.57;101768.98;105930;1264;97923;-86
2023/09/26 04:05:07;;;;;;;11.40;6.30;;;;;;;16.38;97.55;101770.90;105966;1264;97934;-87
2023/09/26 04:07:53;;;;;;;6.10;5.50;;;;;;;16.39;97.54;101769.88;105891;1266;101474;-87
2023/09/26 04:10:39;;;;;;;8.40;6.00;;;;;;;16.40;97.46;101767.34;105969;1260;100801;-86
2023/09/26 04:13:25;;;;;;;8.90;6.00;;;;;;;16.41;97.41;101765.90;105929;1261;99228;-86
2023/09/26 04:16:11;;;;;;;8.00;6.20;;;;;;;16.41;97.52;101771.27;105812;1267;99330;-88
2023/09/26 04:18:57;;;;;;;10.20;6.10;;;;;;;16.41;97.48;101771.23;105576;1263;98020;-87
2023/09/26 04:21:43;;;;;;;8.40;6.30;;;;;;;16.41;97.67;101769.77;105738;1264;101431;-85
2023/09/26 04:24:28;;;;;;;9.60;6.10;;;;;;;16.40;97.58;101769.56;105765;1260;99156;-85
2023/09/26 04:27:15;;;;;;;7.70;5.60;;;;;;;16.41;97.86;101767.48;105643;1266;98028;-86
2023/09/26 04:30:00;;;;;;;9.70;5.30;;;;;;;16.42;97.92;101772.44;105677;1260;97893;-86
2023/09/26 04:32:46;;;;;;;7.00;5.10;;;;;;;16.43;98.15;101774.83;105593;1264;97970;-87
2023/09/26 04:35:32;;;;;;;7.50;5.10;;;;;;;16.43;98.15;101770.70;105587;1260;101498;-86
2023/09/26 04:38:19;;;;;;;5.80;5.20;;;;;;;16.44;98.17;101768.95;105714;1264;99081;-85
2023/09/26 04:41:04;;;;;;;9.90;5.00;;;;;;;16.44;98.36;101768.67;105678;1261;99309;-86
2023/09/26 04:43:50;;;;;;;11.50;5.10;;;;;;;16.44;98.72;101770.83;105660;1260;98168;-86
2023/09/26 04:46:37;;;;;;;6.30;5.30;;;;;;;16.44;98.78;101770.20;105798;1261;98449;-86
2023/09/26 04:49:22;;;;;;;5.70;5.10;;;;;;;16.44;98.43;101768.58;105795;1261;101434;-86
2023/09/26 04:52:09;;;;;;;9.30;5.70;;;;;;;16.44;98.41;101764.22;105631;1265;99131;-84
2023/09/26 04:54:55;;;;;;;6.30;5.00;;;;;;;16.45;98.66;101764.23;105602;1266;98078;-87
2023/09/26 04:57:43;;;;;;;8.10;4.80;;;;;;;16.46;98.57;101763.52;105667;1261;98077;-86
2023/09/26 05:00:31;;;;;;;6.40;5.40;;;;;;;16.47;98.44;101763.61;105754;1261;98441;-86
2023/09/26 05:03:16;;;;;;;6.10;5.20;;;;;;;16.48;98.56;101765.87;105840;1264;102786;-85
2023/09/26 05:06:02;;;;;;;6.50;5.30;;;;;;;16.49;98.64;101768.73;105639;1261;100466;-86
2023/09/26 05:08:50;;;;;;;8.30;5.10;;;;;;;16.50;98.82;101765.42;105714;1260;98043;-85
2023/09/26 05:11:35;;;;;;;10.40;6.00;;;;;;;16.50;98.88;101763.23;105755;1261;98051;-86
2023/09/26 05:14:21;;;;;;;8.90;5.50;;;;;;;16.50;99.05;101758.79;105835;1261;98001;-87
2023/09/26 05:17:07;;;;;;;8.30;5.80;;;;;;;16.51;99.08;101759.00;105840;1260;101427;-86
2023/09/26 05:19:54;;;;;;;10.00;6.10;;;;;;;16.51;98.96;101756.86;105921;1264;99863;-87
2023/09/26 05:22:41;;;;;;;7.00;5.80;;;;;;;16.51;99.08;101758.73;105912;1264;98760;-87
2023/09/26 05:25:27;;;;;;;6.90;5.50;;;;;;;16.51;99.01;101757.80;105833;1261;97939;-87
2023/09/26 05:28:13;;;;;;;8.80;5.90;;;;;;;16.51;99.20;101758.06;105845;1260;97870;-87
2023/09/26 05:30:59;;;;;;;11.10;7.40;;;;;;;16.51;99.09;101753.70;105797;1261;101440;-86
2023/09/26 05:33:48;;;;;;;11.10;7.90;;;;;;;16.53;99.12;101753.16;105855;1266;99229;-87
2023/09/26 05:36:34;;;;;;;10.30;7.60;;;;;;;16.53;99.35;101755.83;105654;1261;99068;-85
2023/09/26 05:39:21;;;;;;;9.10;6.80;;;;;;;16.54;99.31;101753.84;105628;1264;97905;-86
2023/09/26 05:42:08;;;;;;;8.50;6.40;;;;;;;16.55;99.53;101756.05;105703;1267;97891;-86
2023/09/26 05:44:55;;;;;;;9.50;6.10;;;;;;;16.56;99.65;101758.48;105760;1263;102858;-86
2023/09/26 05:47:41;;;;;;;9.40;6.30;;;;;;;16.57;99.72;101762.30;105833;1261;100471;-87
2023/09/26 05:50:27;;;;;;;11.40;6.20;;;;;;;16.59;99.52;101763.32;105714;1260;99159;-86
2023/09/26 05:53:12;;;;;;;11.10;7.10;;;;;;;16.61;99.40;101763.42;105798;1259;97949;-88
2023/09/26 05:56:03;;;;;;;10.60;7.40;;;;;;;16.63;99.75;101761.15;105781;1266;98524;-87
2023/09/26 05:58:49;;;;;;;9.20;7.00;;;;;;;16.64;99.74;101760.65;105773;1264;101402;-87
2023/09/26 06:01:37;;;;;;;11.20;6.30;;;;;;;16.67;99.74;101768.24;105758;1264;107696;-85
2023/09/26 06:04:27;;;;;;;10.10;7.20;;;;;;;16.68;99.36;101768.20;106109;1260;98025;-86
2023/09/26 06:07:13;;;;;;;9.60;7.30;;;;;;;16.70;99.64;101769.43;105869;1261;97974;-87
2023/09/26 06:09:58;;;;;;;10.90;7.10;;;;;;;16.71;99.55;101769.31;105768;1266;98404;-86
2023/09/26 06:12:47;;;;;;;10.20;7.10;;;;;;;16.72;99.71;101767.48;105817;1263;102537;-86
2023/09/26 06:15:32;;;;;;;12.50;6.90;;;;;;;16.73;99.73;101769.23;105831;1267;99079;-86
2023/09/26 06:18:18;;;;;;;11.20;7.80;;;;;;;16.74;99.97;101767.65;105796;1260;97910;-86
2023/09/26 06:21:05;;;;;;;8.40;7.40;;;;;;;16.76;99.84;101765.30;105728;1266;98384;-88
2023/09/26 06:23:51;;;;;;;11.80;8.40;;;;;;;16.76;99.83;101770.46;105811;1266;98536;-87
2023/09/26 06:26:36;;;;;;;13.40;8.10;;;;;;;16.77;99.98;101774.64;105721;1262;101464;-87
2023/09/26 06:29:22;;;;;;;11.50;7.50;;;;;;;16.78;99.99;101775.19;105842;1264;99296;-85
2023/09/26 06:32:08;;;;;;;13.90;8.60;;;;;;;16.79;100.00;101778.21;105896;1266;99013;-86
2023/09/26 06:34:59;;;;;;;11.20;8.50;;;;;;;16.76;99.97;101777.29;105765;1260;97996;-86
2023/09/26 06:37:44;;;;;;;12.80;8.30;;;;;;;16.73;100.00;101782.61;105909;1267;98091;-85
2023/09/26 06:40:30;;;;;;;10.50;8.00;;;;;;;16.73;100.00;101783.55;105882;1261;101863;-88
2023/09/26 06:43:16;;;;;;;10.60;8.70;;;;;;;16.73;100.00;101781.65;105747;1260;100479;-86
2023/09/26 06:46:08;;;;;;;13.80;8.80;;;;;;;16.76;100.00;101784.00;106464;1264;100108;-88
2023/09/26 06:48:53;;;;;;;14.50;8.90;;;;;;;16.77;100.00;101783.88;106075;1260;140099;-80
2023/09/26 06:51:39;;;;;;;13.10;8.10;;;;;;;16.79;100.00;101782.64;105576;1261;97938;-90
2023/09/26 06:54:25;;;;;;;21.10;10.10;;;;;;;16.82;100.00;101779.08;106404;1266;102531;-80
2023/09/26 06:57:10;;;;;;;21.40;9.90;;;;;;;16.84;100.00;101776.31;106476;1261;100870;-80
2023/09/26 06:59:57;;;;;;;19.20;9.50;;;;;;;16.86;100.00;101778.15;106412;1264;98439;-80
2023/09/26 07:02:43;;;;;;;25.20;11.20;;;;;;;16.88;100.00;101777.20;106583;1260;98819;-80
2023/09/26 07:05:28;;;;;;;19.60;10.30;;;;;;;16.89;100.00;101779.75;106271;1263;98006;-82
2023/09/26 07:08:15;;;;;;;19.50;11.30;;;;;;;16.88;100.00;101776.04;106196;1264;101527;-86
2023/09/26 07:11:05;;;;;;;18.20;10.60;;;;;;;16.87;100.00;101776.23;106052;1267;100613;-84
2023/09/26 07:13:51;;;;;;;13.50;10.40;;;;;;;16.84;100.00;101777.35;106243;1261;100279;-88
2023/09/26 07:16:37;;;;;;;21.50;11.10;;;;;;;16.85;100.00;101779.86;106460;1267;97930;-87
2023/09/26 07:19:23;;;;;;;17.90;10.70;;;;;;;16.89;100.00;101780.16;106446;1266;96415;-89
2023/09/26 07:22:13;;;;;;;14.90;12.30;;;;;;;16.91;100.00;101779.67;106578;1261;102480;-91
2023/09/26 07:25:00;;;;;;;13.70;11.20;;;;;;;16.93;100.00;101780.27;106110;1261;99252;-81
2023/09/26 07:27:46;;;;;;;21.70;12.10;;;;;;;16.97;100.00;101780.00;106463;1260;97903;-91
2023/09/26 07:30:53;;;;;;;17.20;10.50;;;;;;;17.00;100.00;101778.36;106634;1265;98006;-89
2023/09/26 07:33:39;;;;;;;20.60;12.40;;;;;;;17.02;100.00;101776.86;106730;1262;96439;-94
2023/09/26 07:36:25;;;;;;;20.00;12.00;;;;;;;17.04;100.00;101777.25;106407;1261;102783;-90
2023/09/26 07:39:11;;;;;;;20.30;12.10;;;;;;;17.10;100.00;101776.86;106200;1264;100490;-87
2023/09/26 07:41:57;;;;;;;17.30;12.30;;;;;;;17.13;100.00;101776.92;106657;1261;97867;-92
2023/09/26 07:44:43;;;;;;;16.00;9.60;;;;;;;17.16;100.00;101772.31;107596;1255;97903;-85
2023/09/26 07:47:28;;;;;;;18.70;12.20;;;;;;;17.22;100.00;101771.83;105932;1261;95906;-85
2023/09/26 07:50:14;;;;;;;20.10;11.80;;;;;;;17.26;100.00;101769.64;105862;1261;101987;-88
2023/09/26 07:53:02;;;;;;;20.80;12.10;;;;;;;17.30;100.00;101769.82;106230;1266;99363;-88
2023/09/26 07:55:48;;;;;;;16.30;11.70;;;;;;;17.31;100.00;101772.12;106078;1261;98868;-87
2023/09/26 07:58:34;;;;;;;23.60;11.80;;;;;;;17.35;100.00;101770.73;106166;1261;98071;-87
2023/09/26 08:01:20;;;;;;;21.10;11.60;;;;;;;17.38;100.00;101773.20;106355;1262;97878;-92
2023/09/26 08:04:07;;;;;;;18.60;11.70;;;;;;;17.41;100.00;101774.13;105800;1267;101438;-86
2023/09/26 08:06:52;;;;;;;25.60;12.60;;;;;;;17.44;100.00;101772.27;105944;1262;99179;-84
2023/09/26 08:09:39;;;;;;;23.90;12.90;;;;;;;17.47;100.00;101770.48;106034;1262;98073;-84
2023/09/26 08:12:24;;;;;;;22.50;13.70;;;;;;;17.47;100.00;101768.94;105975;1265;97963;-83
2023/09/26 08:15:10;;;;;;;19.20;11.40;;;;;;;17.50;100.00;101768.52;105941;1262;98524;-84
2023/09/26 08:17:56;;;;;;;20.30;13.00;;;;;;;17.57;100.00;101773.95;105616;1262;101563;-84
2023/09/26 08:20:41;;;;;;;20.30;12.30;;;;;;;17.64;100.00;101774.10;105764;1262;99308;-82
2023/09/26 08:23:30;;;;;;;20.70;12.80;;;;;;;17.70;100.00;101770.95;105634;1266;99282;-83
2023/09/26 08:26:16;;;;;;;28.90;13.10;;;;;;;17.76;100.00;101770.88;106372;1262;98422;-83
2023/09/26 08:29:01;;;;;;;24.70;13.00;;;;;;;17.80;100.00;101768.59;105835;1261;97979;-84
2023/09/26 08:31:47;;;;;;;19.30;12.80;;;;;;;17.83;100.00;101768.97;105581;1261;101437;-83
2023/09/26 08:34:33;;;;;;;18.40;12.90;;;;;;;17.88;100.00;101765.69;105604;1264;100162;-84
2023/09/26 08:37:18;;;;;;;22.90;14.20;;;;;;;17.91;100.00;101764.98;105943;1261;97949;-84
2023/09/26 08:40:06;;;;;;;25.60;13.50;;;;;;;17.94;100.00;101765.24;105738;1261;97968;-84
2023/09/26 08:42:56;;;;;;;22.10;12.50;;;;;;;17.96;100.00;101765.45;105899;1267;98857;-83
2023/09/26 08:45:42;;;;;;;21.90;14.30;;;;;;;17.98;100.00;101768.95;105888;1261;101481;-85
2023/09/26 08:48:27;;;;;;;23.60;13.60;;;;;;;17.99;100.00;101769.30;105699;1264;99843;-84
2023/09/26 08:51:13;;;;;;;21.50;13.40;;;;;;;18.02;100.00;101769.79;105696;1261;98019;-84
2023/09/26 08:53:59;;;;;;;24.00;13.80;;;;;;;18.06;100.00;101769.00;105817;1262;97980;-85
2023/09/26 08:56:45;;;;;;;22.90;14.80;;;;;;;18.09;100.00;101762.39;105753;1264;99615;-83
2023/09/26 08:59:32;;;;;;;26.80;14.40;;;;;;;18.12;100.00;101759.96;105883;1262;102123;-85
2023/09/26 09:02:17;;;;;;;22.10;14.10;;;;;;;18.17;100.00;101761.75;105594;1261;100452;-81
2023/09/26 09:05:04;;;;;;;17.90;13.00;;;;;;;18.24;100.00;101765.50;105759;1262;98374;-84
2023/09/26 09:07:50;;;;;;;22.80;14.10;;;;;;;18.30;100.00;101766.46;105676;1264;98065;-84
2023/09/26 09:10:55;;;;;;;27.70;14.60;;;;;;;18.38;100.00;101763.88;105785;1262;97962;-84
2023/09/26 09:13:42;;;;;;;26.40;16.10;;;;;;;18.47;100.00;101766.54;105849;1267;102620;-84
2023/09/26 09:16:27;;;;;;;31.70;16.00;;;;;;;18.55;100.00;101760.44;105699;1264;99123;-84
2023/09/26 09:19:13;;;;;;;21.70;15.50;;;;;;;18.62;100.00;101760.67;105646;1262;98844;-85
2023/09/26 09:22:14;;;;;;;23.80;15.30;;;;;;;18.68;100.00;101760.20;106052;1261;96838;-85
2023/09/26 09:25:01;;;;;;;21.90;15.20;;;;;;;18.75;100.00;101758.69;105760;1261;97991;-84
2023/09/26 09:27:47;;;;;;;23.00;15.60;;;;;;;18.82;100.00;101758.71;105884;1265;101423;-84
2023/09/26 09:30:42;;;;;;;26.10;14.90;;;;;;;18.89;100.00;101757.90;105883;1267;100141;-84
2023/09/26 09:33:27;;;;;;;26.90;15.10;;;;;;;18.98;100.00;101755.80;105865;1262;98966;-85
2023/09/26 09:36:14;;;;;;;22.40;15.20;;;;;;;19.06;100.00;101753.92;105780;1267;98481;-84
2023/09/26 09:39:02;;;;;;;22.60;14.90;;;;;;;19.10;100.00;101751.10;105750;1263;98897;-84
2023/09/26 09:41:47;;;;;;;25.00;15.80;;;;;;;19.15;100.00;101755.60;105638;1262;101442;-83
2023/09/26 09:44:33;;;;;;;26.50;16.70;;;;;;;19.21;100.00;101754.23;105581;1261;100787;-84
2023/09/26 09:47:22;;;;;;;26.80;16.60;;;;;;;19.28;100.00;101753.91;105589;1264;99033;-85
2023/09/26 09:50:08;;;;;;;27.30;16.70;;;;;;;19.34;100.00;101752.98;106136;1264;97981;-85
2023/09/26 09:53:00;;;;;;;23.80;15.70;;;;;;;19.42;100.00;101748.16;105950;1267;97984;-85
2023/09/26 09:55:49;;;;;;;22.70;15.50;;;;;;;19.49;100.00;101748.67;105900;1264;101347;-84
2023/09/26 09:58:44;;;;;;;24.50;15.60;;;;;;;19.57;100.00;101747.58;105738;1261;99092;-85
2023/09/26 10:01:30;;;;;;;26.80;17.10;;;;;;;19.65;100.00;101748.36;105747;1262;98007;-84
2023/09/26 10:04:16;;;;;;;23.50;15.90;;;;;;;19.72;99.98;101746.21;105901;1261;97982;-85
2023/09/26 10:07:02;;;;;;;24.40;15.10;;;;;;;19.78;99.98;101746.42;105911;1267;98048;-84
2023/09/26 10:09:48;;;;;;;23.00;14.70;;;;;;;19.84;99.48;101744.68;105861;1267;101401;-84
2023/09/26 10:12:34;;;;;;;22.60;15.10;;;;;;;19.89;99.24;101742.73;105665;1266;99140;-82
2023/09/26 10:15:20;;;;;;;21.90;15.30;;;;;;;19.93;98.82;101741.20;105912;1266;99023;-84
2023/09/26 10:18:06;;;;;;;22.20;14.50;;;;;;;19.98;99.21;101741.82;105938;1264;97977;-83
2023/09/26 10:20:52;;;;;;;24.00;16.10;;;;;;;20.02;98.44;101738.70;105838;1263;97956;-83
2023/09/26 10:23:37;;;;;;;24.50;15.20;;;;;;;20.05;97.88;101736.34;105777;1261;101453;-83
2023/09/26 10:26:24;;;;;;;24.30;15.00;;;;;;;20.08;97.83;101736.59;105922;1261;100379;-83
2023/09/26 10:29:24;;;;;;;22.00;14.90;;;;;;;20.11;97.29;101735.73;105774;1266;98089;-84
2023/09/26 10:32:11;;;;;;;24.00;16.50;;;;;;;20.13;96.85;101734.05;105772;1261;98122;-83
2023/09/26 10:34:57;;;;;;;20.30;14.90;;;;;;;20.15;96.75;101731.48;105624;1264;99709;-82
2023/09/26 10:37:49;;;;;;;18.00;13.30;;;;;;;20.18;96.27;101731.24;105757;1266;101500;-83
2023/09/26 10:40:35;;;;;;;22.10;14.80;;;;;;;20.23;96.70;101730.55;105697;1261;100469;-83
2023/09/26 10:43:21;;;;;;;24.30;13.90;;;;;;;20.29;96.67;101730.38;105663;1262;97974;-83
2023/09/26 10:46:07;;;;;;;19.00;14.20;;;;;;;20.33;95.97;101725.89;105610;1261;97975;-83
2023/09/26 10:48:52;;;;;;;23.20;15.80;;;;;;;20.38;95.47;101722.39;105662;1261;97934;-83
2023/09/26 10:51:37;;;;;;;23.90;14.60;;;;;;;20.42;95.78;101718.28;105605;1262;101340;-84
2023/09/26 10:54:23;;;;;;;24.10;14.50;;;;;;;20.48;95.63;101717.67;105932;1261;100369;-83
2023/09/26 10:57:23;;;;;;;23.20;15.30;;;;;;;20.53;95.28;101718.21;105562;1261;98845;-83
2023/09/26 11:00:11;;;;;;;20.70;15.00;;;;;;;20.57;94.49;101716.70;105824;1266;98080;-84
2023/09/26 11:02:57;;;;;;;20.40;14.00;;;;;;;20.56;94.16;101713.95;105774;1264;99170;-83
2023/09/26 11:05:44;;;;;;;20.10;14.90;;;;;;;20.58;94.29;101712.80;105895;1267;102998;-82
2023/09/26 11:08:30;;;;;;;22.60;15.50;;;;;;;20.62;94.11;101710.75;105812;1266;99189;-85
2023/09/26 11:11:18;;;;;;;21.60;14.70;;;;;;;20.65;93.81;101709.84;105512;1266;97979;-86
2023/09/26 11:14:04;;;;;;;20.50;15.30;;;;;;;20.66;93.58;101711.79;105825;1264;98050;-86
2023/09/26 11:16:51;;;;;;;30.10;16.30;;;;;;;20.66;93.21;101708.73;105689;1263;98454;-84
2023/09/26 11:19:38;;;;;;;18.30;13.90;;;;;;;20.66;93.35;101709.20;105774;1261;102006;-86
2023/09/26 11:22:27;;;;;;;23.40;15.10;;;;;;;20.67;92.96;101708.34;105699;1266;99252;-84
2023/09/26 11:25:13;;;;;;;18.50;14.30;;;;;;;20.68;93.06;101701.59;105767;1262;97943;-81
2023/09/26 11:28:01;;;;;;;24.10;15.10;;;;;;;20.71;93.14;101702.52;105919;1264;97711;-80
2023/09/26 11:30:47;;;;;;;23.60;15.70;;;;;;;20.74;93.08;101697.92;106250;1266;98590;-80
2023/09/26 11:33:34;;;;;;;22.60;15.30;;;;;;;20.79;93.05;101695.56;106254;1266;103347;-81
2023/09/26 11:36:19;;;;;;;22.40;16.20;;;;;;;20.84;93.03;101703.17;107018;1261;100888;-83
2023/09/26 11:39:06;;;;;;;22.40;14.80;;;;;;;20.86;92.61;101703.19;106395;1261;98524;-81
2023/09/26 11:42:05;;;;;;;19.00;14.50;;;;;;;20.87;92.50;101700.82;106392;1261;97990;-81
2023/09/26 11:44:55;;;;;;;20.40;14.40;;;;;;;20.91;92.73;101697.34;106364;1261;98731;-82
2023/09/26 11:47:40;;;;;;;23.00;14.50;;;;;;;20.95;92.63;101698.66;106284;1266;101431;-81
2023/09/26 11:50:27;;;;;;;21.50;15.70;;;;;;;20.98;92.33;101698.26;106390;1264;99160;-80
2023/09/26 11:53:15;;;;;;;24.00;16.20;;;;;;;21.02;92.13;101696.89;106343;1264;97938;-81
2023/09/26 11:56:00;;;;;;;20.60;14.50;;;;;;;21.03;91.73;101694.70;106455;1266;98005;-81
2023/09/26 11:58:46;;;;;;;23.70;16.20;;;;;;;21.06;91.81;101696.10;106304;1261;97887;-80
2023/09/26 12:01:32;;;;;;;24.60;15.70;;;;;;;21.10;91.62;101692.31;106365;1261;101950;-81
2023/09/26 12:04:18;;;;;;;22.30;14.90;;;;;;;21.11;91.44;101687.40;106328;1267;99224;-81
2023/09/26 12:07:03;;;;;;;22.40;15.60;;;;;;;21.12;90.94;101688.62;106103;1261;98007;-81
2023/09/26 12:09:49;;;;;;;21.50;16.00;;;;;;;21.14;91.00;101683.66;106328;1260;96315;-82
2023/09/26 12:12:35;;;;;;;20.00;15.20;;;;;;;21.19;90.86;101678.90;106306;1261;97991;-81
2023/09/26 12:15:25;;;;;;;27.80;17.80;;;;;;;21.21;91.02;101678.91;106222;1261;102326;-81
2023/09/26 12:18:10;;;;;;;26.30;18.30;;;;;;;21.22;90.41;101678.16;106403;1262;100521;-81
2023/09/26 12:20:55;;;;;;;26.10;17.30;;;;;;;21.21;90.27;101678.13;106477;1266;97985;-81
2023/09/26 12:23:41;;;;;;;24.10;16.90;;;;;;;21.19;90.16;101673.83;106297;1266;98485;-81
2023/09/26 12:26:28;;;;;;;24.00;17.40;;;;;;;21.16;90.28;101675.16;106425;1261;97981;-81
2023/09/26 12:29:15;;;;;;;23.60;18.90;;;;;;;21.13;90.17;101671.58;106300;1265;101327;-81
2023/09/26 12:32:02;;;;;;;23.90;16.70;;;;;;;21.07;89.96;101672.94;106302;1261;100372;-81